Portada
METAR-TAF:

METAR-TAF

Aeroports :

Toyama, Japó

latitud: 36-39N, longitud: 137-11E, altitud: 24 m

Observació

L'informe es va fer fa 42 minuts, a les 01:00 UTC
Vent 3 kt amb direcció variable
Temperatura 22°C
Humitat 50%
Pressió 1008 hPa
Visibilitat 10 km o més
Escasses núvols a una alçada de 2500 ft
Cel ennuvolat

METAR: RJNT 280100Z VRB03KT 9999 FEW025 BKN/// 22/11 Q1008

Hora: 10:42 (01:42 UTC)

Pronòstic

L'informe es va fer fa 2 hores i 35 minuts, a les 23:07 UTC
Pronòstic vàlid del 28 a les 00 UTC al 29 a les 06 UTC
Vent 10 kt del Nord
Visibilitat 10 km o més
Escasses núvols a una alçada de 3000 ft
Evolucionant progressivament
l' 28 a les 12 UTC al 28 a les 15 UTC
Vent 4 kt del Sud
Evolucionant progressivament
l' 28 a les 21 UTC al 29 a les 00 UTC
Vent 10 kt del Nord

TAF: RJNT 272307Z 2800/2906 36010KT 9999 FEW030 BECMG 2812/2815 19004KT BECMG 2821/2900 36010KT

Observacions i pronòstics meteorològics de més de 4000 aeroports (METAR i TAF).

Les estacions disponibles són els punts grocs i vermells al mapa.

Posi el ratolí al punt desitjat per veure el nom de l'estació.

Feu clic per veure les observacions i els pronòstics meteorològics.

Per canviar el mapa: feu clic els botons verds amb una creu de color negre per apropar; al botó verd amb un guió per allunyar la imatge; o en les fletxes verdes per a mapes adjacents.


METAR-TAF: